createdAt,value
2016-11-15T00:00:04.325Z,0
2016-11-15T00:05:04.625Z,0
2016-11-15T00:10:04.402Z,0
2016-11-15T00:15:03.867Z,0
2016-11-15T00:20:04.588Z,0
2016-11-15T00:25:04.836Z,0
2016-11-15T00:30:05.009Z,0
2016-11-15T00:35:04.331Z,0
2016-11-15T00:40:03.879Z,0
2016-11-15T00:45:04.337Z,0
2016-11-15T00:50:04.346Z,0
2016-11-15T00:55:03.906Z,0
2016-11-15T01:00:04.528Z,0
2016-11-15T01:05:04.659Z,0
2016-11-15T01:10:04.134Z,0
2016-11-15T01:15:04.181Z,0
2016-11-15T01:20:04.571Z,0
2016-11-15T01:25:04.106Z,0
2016-11-15T01:30:04.116Z,0
2016-11-15T01:35:04.707Z,0
2016-11-15T01:40:04.398Z,0
2016-11-15T01:45:04.703Z,0
2016-11-15T01:50:04.504Z,0
2016-11-15T01:55:04.754Z,0
2016-11-15T02:00:04.097Z,0
2016-11-15T02:05:04.414Z,0
2016-11-15T02:10:04.147Z,0
2016-11-15T02:15:04.785Z,0
2016-11-15T02:20:04.165Z,0
2016-11-15T02:25:04.291Z,0
2016-11-15T02:30:04.389Z,0
2016-11-15T02:35:04.208Z,0
2016-11-15T02:40:04.184Z,0
2016-11-15T02:45:04.710Z,0
2016-11-15T02:50:04.457Z,0
2016-11-15T02:55:04.641Z,0
2016-11-15T03:00:04.990Z,0
2016-11-15T03:05:04.686Z,0
2016-11-15T03:10:04.504Z,0
2016-11-15T03:15:03.962Z,0
2016-11-15T03:20:04.808Z,0
2016-11-15T03:25:04.250Z,0
2016-11-15T03:30:04.279Z,0
2016-11-15T03:35:04.760Z,0
2016-11-15T03:40:04.957Z,0
2016-11-15T03:45:03.781Z,0
2016-11-15T03:50:04.288Z,0
2016-11-15T03:55:04.765Z,0
2016-11-15T04:00:05.368Z,0
2016-11-15T04:05:04.185Z,0
2016-11-15T04:10:04.988Z,0
2016-11-15T04:15:04.956Z,0
2016-11-15T04:20:04.365Z,0
2016-11-15T04:25:03.941Z,0
2016-11-15T04:30:04.558Z,0
2016-11-15T04:35:04.117Z,0
2016-11-15T04:40:04.548Z,0
2016-11-15T04:45:03.992Z,0
2016-11-15T04:50:04.503Z,0
2016-11-15T04:55:04.755Z,0
2016-11-15T05:00:03.994Z,0
2016-11-15T05:05:04.152Z,0
2016-11-15T05:10:04.254Z,0
2016-11-15T05:15:04.572Z,0
2016-11-15T05:20:04.730Z,0
2016-11-15T05:25:04.203Z,0
2016-11-15T05:30:04.422Z,0
2016-11-15T05:35:04.757Z,0
2016-11-15T05:40:04.132Z,0
2016-11-15T05:45:03.887Z,0
2016-11-15T05:50:04.251Z,0
2016-11-15T05:55:04.776Z,0
2016-11-15T06:00:04.244Z,0
2016-11-15T06:05:04.439Z,0
2016-11-15T06:10:04.258Z,0
2016-11-15T06:15:03.911Z,0
2016-11-15T06:20:04.153Z,0
2016-11-15T06:25:04.637Z,0
2016-11-15T06:30:04.222Z,1
2016-11-15T06:35:04.946Z,3
2016-11-15T06:40:04.589Z,6
2016-11-15T06:45:04.715Z,16
2016-11-15T06:50:04.907Z,30
2016-11-15T06:55:04.276Z,32
2016-11-15T07:00:04.844Z,39
2016-11-15T07:05:03.956Z,52
2016-11-15T07:10:04.027Z,62
2016-11-15T07:15:04.465Z,82
2016-11-15T07:20:04.124Z,153
2016-11-15T07:25:04.621Z,294
2016-11-15T07:30:04.228Z,400
2016-11-15T07:35:04.712Z,509
2016-11-15T07:40:04.629Z,521
2016-11-15T07:45:04.944Z,467
2016-11-15T07:50:04.671Z,439
2016-11-15T07:55:04.138Z,459
2016-11-15T08:00:04.186Z,468
2016-11-15T08:05:04.072Z,444
2016-11-15T08:10:04.142Z,455
2016-11-15T08:15:04.793Z,490
2016-11-15T08:20:04.712Z,481
2016-11-15T08:25:04.132Z,598
2016-11-15T08:30:04.773Z,748
2016-11-15T08:35:04.219Z,852
2016-11-15T08:40:03.935Z,1000
2016-11-15T08:45:03.863Z,959
2016-11-15T08:50:04.846Z,800
2016-11-15T08:55:04.104Z,986
2016-11-15T09:00:04.731Z,1000
2016-11-15T09:05:03.965Z,957
2016-11-15T09:10:04.682Z,1000
2016-11-15T09:15:04.237Z,1000
2016-11-15T09:20:04.544Z,1000
2016-11-15T09:25:03.753Z,1000
2016-11-15T09:30:04.648Z,1000
2016-11-15T09:35:04.236Z,1000
2016-11-15T09:40:03.990Z,847
2016-11-15T09:45:04.385Z,1000
2016-11-15T09:50:04.770Z,1000
2016-11-15T09:55:04.548Z,1000
2016-11-15T10:00:04.478Z,992
2016-11-15T10:05:04.590Z,645
2016-11-15T10:10:04.400Z,923
2016-11-15T10:15:05.040Z,1000
2016-11-15T10:20:04.145Z,1000
2016-11-15T10:25:04.629Z,1000
2016-11-15T10:30:03.750Z,1000
2016-11-15T10:35:04.457Z,1000
2016-11-15T10:40:04.351Z,973
2016-11-15T10:45:04.343Z,1000
2016-11-15T10:50:04.094Z,2000
2016-11-15T10:55:04.386Z,1000
2016-11-15T11:00:04.614Z,1000
2016-11-15T11:05:04.519Z,1000
2016-11-15T11:10:04.234Z,1000
2016-11-15T11:15:04.425Z,1000
2016-11-15T11:20:04.111Z,1000
2016-11-15T11:25:04.721Z,998
2016-11-15T11:30:04.285Z,1000
2016-11-15T11:35:04.546Z,1000
2016-11-15T11:40:04.125Z,1000
2016-11-15T11:45:04.479Z,1000
2016-11-15T11:50:04.048Z,1000
2016-11-15T11:55:04.429Z,2000
2016-11-15T12:00:04.178Z,2000
2016-11-15T12:05:04.423Z,3000
2016-11-15T12:10:04.666Z,2000
2016-11-15T12:15:03.997Z,1000
2016-11-15T12:20:04.149Z,860
2016-11-15T12:25:04.517Z,2000
2016-11-15T12:30:04.861Z,1000
2016-11-15T12:35:04.443Z,1000
2016-11-15T12:40:04.094Z,1000
2016-11-15T12:45:04.609Z,2000
2016-11-15T12:50:04.190Z,2000
2016-11-15T12:55:04.824Z,1000
2016-11-15T13:00:04.590Z,1000
2016-11-15T13:05:04.673Z,2000
2016-11-15T13:10:04.900Z,1000
2016-11-15T13:15:04.294Z,1000
2016-11-15T13:20:04.912Z,1000
2016-11-15T13:25:04.730Z,1000
2016-11-15T13:30:03.916Z,882
2016-11-15T13:35:04.572Z,908
2016-11-15T13:40:04.693Z,1000
2016-11-15T13:45:04.500Z,830
2016-11-15T13:50:04.841Z,682
2016-11-15T13:55:04.351Z,589
2016-11-15T14:00:04.507Z,705
2016-11-15T14:05:04.543Z,728
2016-11-15T14:10:04.422Z,621
2016-11-15T14:15:04.580Z,728
2016-11-15T14:20:04.358Z,709
2016-11-15T14:25:04.164Z,662
2016-11-15T14:30:04.437Z,632
2016-11-15T14:35:04.847Z,569
2016-11-15T14:40:04.104Z,380
2016-11-15T14:45:04.634Z,352
2016-11-15T14:50:04.569Z,344
2016-11-15T14:55:04.856Z,279
2016-11-15T15:00:04.123Z,254
2016-11-15T15:05:04.727Z,254
2016-11-15T15:10:04.513Z,276
2016-11-15T15:15:04.469Z,193
2016-11-15T15:20:04.173Z,85
2016-11-15T15:25:04.552Z,86
2016-11-15T15:30:04.537Z,94
2016-11-15T15:35:03.976Z,89
2016-11-15T15:40:04.042Z,54
2016-11-15T15:45:04.138Z,34
2016-11-15T15:50:04.341Z,26
2016-11-15T15:55:04.606Z,17
2016-11-15T16:00:04.716Z,13
2016-11-15T16:05:04.046Z,7
2016-11-15T16:10:04.007Z,2
2016-11-15T16:15:04.050Z,1
2016-11-15T16:20:04.723Z,0
2016-11-15T16:25:04.036Z,0
2016-11-15T16:30:04.693Z,0
2016-11-15T16:35:04.550Z,0
2016-11-15T16:40:04.792Z,0
2016-11-15T16:45:04.402Z,0
2016-11-15T16:50:04.682Z,0
2016-11-15T16:55:04.052Z,0
2016-11-15T17:00:04.690Z,0
2016-11-15T17:05:04.681Z,0
2016-11-15T17:10:04.636Z,0
2016-11-15T17:15:04.020Z,0
2016-11-15T17:20:04.367Z,0
2016-11-15T17:25:06.161Z,0
2016-11-15T17:30:04.680Z,0
2016-11-15T17:35:03.975Z,0
2016-11-15T17:40:04.202Z,0
2016-11-15T17:50:04.845Z,0
2016-11-15T17:55:04.341Z,0
2016-11-15T18:00:04.293Z,0
2016-11-15T18:05:04.233Z,0
2016-11-15T18:10:04.623Z,0
2016-11-15T18:15:04.571Z,0
2016-11-15T18:20:04.720Z,0
2016-11-15T18:25:04.798Z,0
2016-11-15T18:30:04.321Z,0
2016-11-15T18:35:04.352Z,0
2016-11-15T18:40:04.416Z,0
2016-11-15T18:45:04.132Z,0
2016-11-15T18:50:04.900Z,0
2016-11-15T18:55:04.736Z,0
2016-11-15T19:00:04.645Z,0
2016-11-15T19:05:04.488Z,0
2016-11-15T19:10:04.594Z,0
2016-11-15T19:15:04.395Z,0
2016-11-15T19:20:04.207Z,0
2016-11-15T19:25:03.973Z,0
2016-11-15T19:30:04.759Z,0
2016-11-15T19:35:04.503Z,0
2016-11-15T19:40:04.669Z,0
2016-11-15T19:45:04.524Z,0
2016-11-15T19:50:04.339Z,0
2016-11-15T19:55:04.197Z,0
2016-11-15T20:00:03.951Z,0
2016-11-15T20:05:04.940Z,0
2016-11-15T20:10:03.976Z,0
2016-11-15T20:15:04.764Z,0
2016-11-15T20:20:04.570Z,0
2016-11-15T20:25:04.247Z,0
2016-11-15T20:30:04.010Z,0
2016-11-15T20:35:04.938Z,0
2016-11-15T20:40:03.977Z,0
2016-11-15T20:45:04.012Z,0
2016-11-15T20:50:04.895Z,0
2016-11-15T20:55:04.947Z,0
2016-11-15T21:00:04.876Z,0
2016-11-15T21:05:04.367Z,0
2016-11-15T21:10:04.612Z,0
2016-11-15T21:15:04.122Z,0
2016-11-15T21:20:03.881Z,0
2016-11-15T21:25:04.021Z,0
2016-11-15T21:30:04.563Z,0
2016-11-15T21:35:04.536Z,0
2016-11-15T21:40:04.136Z,0
2016-11-15T21:45:04.264Z,0
2016-11-15T21:50:04.274Z,0
2016-11-15T21:55:04.158Z,0
2016-11-15T22:00:04.299Z,0
2016-11-15T22:05:04.592Z,0
2016-11-15T22:10:04.780Z,0
2016-11-15T22:15:04.377Z,0
2016-11-15T22:20:04.787Z,0
2016-11-15T22:25:04.090Z,0
2016-11-15T22:30:03.991Z,0
2016-11-15T22:35:03.983Z,0
2016-11-15T22:40:04.058Z,0
2016-11-15T22:45:04.158Z,0
2016-11-15T22:50:04.471Z,0
2016-11-15T22:55:04.562Z,0
2016-11-15T23:00:03.949Z,0
2016-11-15T23:05:04.384Z,0
2016-11-15T23:10:03.911Z,0
2016-11-15T23:15:04.662Z,0
2016-11-15T23:20:04.770Z,0
2016-11-15T23:25:03.887Z,0
2016-11-15T23:30:04.146Z,0
2016-11-15T23:35:04.460Z,0
2016-11-15T23:40:04.883Z,0
2016-11-15T23:45:04.851Z,0
2016-11-15T23:50:04.120Z,0
2016-11-15T23:55:04.352Z,0
